createdAt,value
2017-12-16T00:00:02.970Z,4.30
2017-12-16T00:01:02.947Z,7.60
2017-12-16T00:02:03.547Z,10.40
2017-12-16T00:03:02.903Z,16.50
2017-12-16T00:04:02.900Z,7.90
2017-12-16T00:05:02.872Z,7.00
2017-12-16T00:06:02.861Z,6.90
2017-12-16T00:07:02.829Z,5.60
2017-12-16T00:08:02.796Z,7.20
2017-12-16T00:09:02.788Z,9.50
2017-12-16T00:10:02.756Z,6.30
2017-12-16T00:11:02.735Z,5.80
2017-12-16T00:12:02.739Z,4.80
2017-12-16T00:13:02.694Z,4.70
2017-12-16T00:14:02.673Z,5.40
2017-12-16T00:15:02.656Z,5.00
2017-12-16T00:16:02.648Z,5.70
2017-12-16T00:17:02.612Z,5.40
2017-12-16T00:18:02.614Z,4.80
2017-12-16T00:19:02.562Z,4.50
2017-12-16T00:20:02.546Z,5.20
2017-12-16T00:21:02.536Z,4.60
2017-12-16T00:22:02.556Z,4.60
2017-12-16T00:23:02.487Z,4.40
2017-12-16T00:24:02.478Z,4.80
2017-12-16T00:25:02.445Z,5.00
2017-12-16T00:26:02.441Z,5.60
2017-12-16T00:27:02.393Z,5.80
2017-12-16T00:28:02.385Z,6.10
2017-12-16T00:29:02.374Z,6.00
2017-12-16T00:30:02.346Z,7.20
2017-12-16T00:31:02.334Z,8.30
2017-12-16T00:32:02.291Z,13.00
2017-12-16T00:33:02.265Z,9.60
2017-12-16T00:34:02.238Z,9.40
2017-12-16T00:35:02.221Z,12.90
2017-12-16T00:36:02.222Z,10.80
2017-12-16T00:37:02.186Z,11.60
2017-12-16T00:38:02.175Z,9.00
2017-12-16T00:39:02.152Z,8.00
2017-12-16T00:40:02.125Z,8.00
2017-12-16T00:41:02.103Z,6.80
2017-12-16T00:42:02.098Z,6.30
2017-12-16T00:43:02.060Z,7.20
2017-12-16T00:44:02.040Z,5.90
2017-12-16T00:45:02.017Z,6.20
2017-12-16T00:46:02.002Z,5.20
2017-12-16T00:47:01.979Z,5.40
2017-12-16T00:48:01.951Z,5.70
2017-12-16T00:49:01.927Z,6.30
2017-12-16T00:50:01.929Z,5.60
2017-12-16T00:51:01.882Z,6.30
2017-12-16T00:52:01.856Z,7.30
2017-12-16T00:53:01.827Z,6.60
2017-12-16T00:54:01.835Z,7.60
2017-12-16T00:55:01.799Z,7.80
2017-12-16T00:56:01.773Z,7.90
2017-12-16T00:57:01.757Z,7.50
2017-12-16T00:58:01.729Z,7.70
2017-12-16T00:59:01.713Z,9.10
2017-12-16T01:00:01.676Z,8.80
2017-12-16T01:01:01.673Z,10.20
2017-12-16T01:02:01.638Z,7.00
2017-12-16T01:03:01.616Z,7.50
2017-12-16T01:04:01.609Z,7.70
2017-12-16T01:05:01.596Z,8.00
2017-12-16T01:06:01.579Z,7.30
2017-12-16T01:07:01.535Z,7.90
2017-12-16T01:08:01.508Z,8.60
2017-12-16T01:09:01.499Z,7.00
2017-12-16T01:10:01.472Z,6.90
2017-12-16T01:11:01.447Z,6.40
2017-12-16T01:12:01.428Z,6.80
2017-12-16T01:13:01.406Z,6.40
2017-12-16T01:14:01.402Z,6.20
2017-12-16T01:15:01.373Z,5.90
2017-12-16T01:16:01.354Z,5.80
2017-12-16T01:17:01.323Z,5.00
2017-12-16T01:18:01.318Z,5.00
2017-12-16T01:19:01.289Z,4.90
2017-12-16T01:20:01.262Z,4.20
2017-12-16T01:21:01.232Z,3.80
2017-12-16T01:22:01.209Z,3.80
2017-12-16T01:23:01.204Z,4.10
2017-12-16T01:24:01.169Z,3.90
2017-12-16T01:25:01.166Z,4.30
2017-12-16T01:26:01.130Z,3.80
2017-12-16T01:27:01.096Z,3.70
2017-12-16T01:28:01.097Z,4.30
2017-12-16T01:29:01.070Z,4.00
2017-12-16T01:30:01.041Z,3.80
2017-12-16T01:31:00.997Z,4.00
2017-12-16T01:32:00.987Z,3.80
2017-12-16T01:33:00.968Z,3.20
2017-12-16T01:34:00.945Z,3.00
2017-12-16T01:35:00.934Z,3.50
2017-12-16T01:36:00.910Z,3.00
2017-12-16T01:37:01.572Z,3.30
2017-12-16T01:38:00.850Z,3.20
2017-12-16T01:39:00.822Z,3.40
2017-12-16T01:40:00.828Z,2.80
2017-12-16T01:41:00.796Z,3.40
2017-12-16T01:42:00.773Z,3.10
2017-12-16T01:43:00.740Z,3.10
2017-12-16T01:44:00.727Z,3.10
2017-12-16T01:45:00.706Z,4.00
2017-12-16T01:46:00.693Z,3.80
2017-12-16T01:47:00.673Z,5.70
2017-12-16T01:48:00.626Z,9.90
2017-12-16T01:49:00.625Z,7.00
2017-12-16T01:50:00.607Z,5.30
2017-12-16T01:51:00.574Z,6.40
2017-12-16T01:52:00.535Z,6.70
2017-12-16T01:53:00.535Z,6.50
2017-12-16T01:54:00.511Z,5.30
2017-12-16T01:55:00.477Z,5.60
2017-12-16T01:56:00.453Z,6.40
2017-12-16T01:57:00.429Z,5.10
2017-12-16T01:58:00.411Z,5.30
2017-12-16T01:59:01.074Z,4.30
2017-12-16T02:00:00.380Z,3.90
2017-12-16T02:01:00.338Z,3.80
2017-12-16T02:02:00.325Z,3.50
2017-12-16T02:03:00.312Z,3.30
2017-12-16T02:04:00.273Z,3.20
2017-12-16T02:05:00.248Z,2.90
2017-12-16T02:06:00.239Z,2.60
2017-12-16T02:07:00.193Z,2.90
2017-12-16T02:08:00.177Z,3.20
2017-12-16T02:09:00.186Z,2.70
2017-12-16T02:10:00.132Z,2.70
2017-12-16T02:11:00.118Z,2.60
2017-12-16T02:12:00.112Z,2.80
2017-12-16T02:13:00.082Z,2.70
2017-12-16T02:14:00.573Z,2.80
2017-12-16T02:15:00.024Z,2.50
2017-12-16T02:16:00.001Z,2.60
2017-12-16T02:16:59.986Z,2.40
2017-12-16T02:17:59.955Z,2.90
2017-12-16T02:18:59.930Z,2.80
2017-12-16T02:19:59.929Z,2.30
2017-12-16T02:20:59.895Z,2.30
2017-12-16T02:21:59.872Z,2.20
2017-12-16T02:22:59.859Z,2.30
2017-12-16T02:23:59.827Z,2.10
2017-12-16T02:24:59.802Z,2.70
2017-12-16T02:25:59.770Z,2.50
2017-12-16T02:26:59.748Z,2.30
2017-12-16T02:27:59.752Z,2.60
2017-12-16T02:28:59.698Z,2.00
2017-12-16T02:29:59.682Z,2.60
2017-12-16T02:30:59.665Z,2.30
2017-12-16T02:31:59.647Z,2.30
2017-12-16T02:32:59.633Z,2.10
2017-12-16T02:33:59.610Z,2.20
2017-12-16T02:34:59.578Z,2.10
2017-12-16T02:35:59.566Z,2.30
2017-12-16T02:36:59.545Z,2.10
2017-12-16T02:37:59.521Z,2.80
2017-12-16T02:38:59.479Z,2.40
2017-12-16T02:39:59.473Z,2.60
2017-12-16T02:40:59.446Z,2.50
2017-12-16T02:41:59.422Z,2.10
2017-12-16T02:42:59.377Z,2.60
2017-12-16T02:43:59.386Z,2.50
2017-12-16T02:44:59.352Z,2.80
2017-12-16T02:45:59.322Z,2.80
2017-12-16T02:46:59.318Z,2.50
2017-12-16T02:47:59.283Z,2.90
2017-12-16T02:48:59.272Z,2.50
2017-12-16T02:49:59.233Z,2.50
2017-12-16T02:50:59.211Z,2.50
2017-12-16T02:51:59.185Z,2.50
2017-12-16T02:52:59.166Z,2.60
2017-12-16T02:53:59.133Z,2.60
2017-12-16T02:54:59.114Z,2.50
2017-12-16T02:55:59.093Z,2.50
2017-12-16T02:56:59.071Z,2.50
2017-12-16T02:57:59.068Z,2.80
2017-12-16T02:58:59.041Z,2.50
2017-12-16T02:59:58.991Z,2.80
2017-12-16T03:00:58.972Z,2.90
2017-12-16T03:01:58.961Z,3.00
2017-12-16T03:02:58.940Z,2.70
2017-12-16T03:03:58.906Z,2.60
2017-12-16T03:04:58.894Z,2.70
2017-12-16T03:05:58.868Z,2.60
2017-12-16T03:06:58.837Z,2.60
2017-12-16T03:07:58.838Z,2.60
2017-12-16T03:08:58.816Z,2.70
2017-12-16T03:09:58.772Z,2.40
2017-12-16T03:10:58.754Z,2.80
2017-12-16T03:11:58.740Z,2.70
2017-12-16T03:12:58.728Z,2.50
2017-12-16T03:13:58.702Z,2.40
2017-12-16T03:14:58.653Z,2.70
2017-12-16T03:15:58.651Z,2.60
2017-12-16T03:16:58.613Z,2.50
2017-12-16T03:17:58.611Z,2.80
2017-12-16T03:18:58.560Z,2.40
2017-12-16T03:19:58.555Z,2.50
2017-12-16T03:20:58.535Z,2.50
2017-12-16T03:21:58.518Z,2.20
2017-12-16T03:22:58.476Z,2.60
2017-12-16T03:23:58.473Z,2.30
2017-12-16T03:24:58.431Z,2.60
2017-12-16T03:25:58.414Z,2.50
2017-12-16T03:26:58.384Z,2.30
2017-12-16T03:27:58.370Z,2.60
2017-12-16T03:28:58.327Z,2.50
2017-12-16T03:29:58.313Z,2.50
2017-12-16T03:30:58.300Z,2.60
2017-12-16T03:31:58.289Z,2.60
2017-12-16T03:32:58.247Z,2.60
2017-12-16T03:33:58.230Z,2.60
2017-12-16T03:34:58.214Z,2.80
2017-12-16T03:35:58.167Z,2.70
2017-12-16T03:36:58.151Z,2.60
2017-12-16T03:37:58.150Z,2.90
2017-12-16T03:38:58.100Z,2.60
2017-12-16T03:39:58.090Z,2.80
2017-12-16T03:40:58.068Z,3.00
2017-12-16T03:41:58.603Z,2.60
2017-12-16T03:42:58.030Z,2.60
2017-12-16T03:43:57.999Z,2.40
2017-12-16T03:44:57.987Z,2.40
2017-12-16T03:45:57.961Z,2.40
2017-12-16T03:46:57.923Z,2.20
2017-12-16T03:47:57.911Z,2.80
2017-12-16T03:48:57.878Z,2.30
2017-12-16T03:49:57.870Z,2.30
2017-12-16T03:50:57.851Z,2.30
2017-12-16T03:51:57.819Z,2.50
2017-12-16T03:52:57.780Z,2.40
2017-12-16T03:53:57.771Z,2.60
2017-12-16T03:54:57.762Z,2.10
2017-12-16T03:55:57.712Z,2.70
2017-12-16T03:56:57.683Z,2.40
2017-12-16T03:57:57.688Z,2.50
2017-12-16T03:58:57.711Z,2.50
2017-12-16T03:59:57.621Z,2.60
2017-12-16T04:00:57.606Z,2.10
2017-12-16T04:01:57.585Z,2.70
2017-12-16T04:02:57.559Z,2.50
2017-12-16T04:03:57.526Z,2.30
2017-12-16T04:04:57.508Z,2.70
2017-12-16T04:05:57.494Z,2.50
2017-12-16T04:06:57.484Z,2.40
2017-12-16T04:07:57.443Z,2.60
2017-12-16T04:08:57.415Z,2.10
2017-12-16T04:09:57.400Z,2.30
2017-12-16T04:10:57.371Z,2.20
2017-12-16T04:11:57.352Z,2.10
2017-12-16T04:12:57.321Z,2.10
2017-12-16T04:13:57.322Z,2.40
2017-12-16T04:14:57.274Z,1.80
2017-12-16T04:15:57.262Z,2.40
2017-12-16T04:16:57.228Z,2.10
2017-12-16T04:17:57.209Z,2.40
2017-12-16T04:18:57.188Z,1.80
2017-12-16T04:19:57.162Z,1.90
2017-12-16T04:20:57.131Z,2.10
2017-12-16T04:21:57.112Z,1.60
2017-12-16T04:22:57.077Z,1.80
2017-12-16T04:23:57.072Z,1.90
2017-12-16T04:24:57.052Z,1.90
2017-12-16T04:25:57.028Z,1.50
2017-12-16T04:26:57.018Z,1.50
2017-12-16T04:27:56.964Z,1.60
2017-12-16T04:28:56.968Z,1.60
2017-12-16T04:29:56.930Z,2.10
2017-12-16T04:30:56.921Z,1.60
2017-12-16T04:31:56.881Z,2.20
2017-12-16T04:32:56.860Z,1.60
2017-12-16T04:33:56.856Z,1.90
2017-12-16T04:34:56.829Z,1.90
2017-12-16T04:35:56.807Z,1.70
2017-12-16T04:36:56.755Z,2.00
2017-12-16T04:37:56.732Z,1.70
2017-12-16T04:38:56.733Z,1.80
2017-12-16T04:39:56.687Z,1.90
2017-12-16T04:40:56.677Z,1.90
2017-12-16T04:41:56.649Z,2.10
2017-12-16T04:42:56.624Z,2.10
2017-12-16T04:43:56.613Z,1.80
2017-12-16T04:44:56.589Z,1.90
2017-12-16T04:45:56.570Z,1.80
2017-12-16T04:46:56.547Z,1.70
2017-12-16T04:47:56.511Z,2.10
2017-12-16T04:48:57.106Z,2.30
2017-12-16T04:49:56.467Z,2.00
2017-12-16T04:50:56.421Z,2.20
2017-12-16T04:51:56.416Z,2.30
2017-12-16T04:52:56.395Z,1.80
2017-12-16T04:53:56.361Z,2.30
2017-12-16T04:54:56.349Z,2.30
2017-12-16T04:55:56.319Z,2.00
2017-12-16T04:56:56.306Z,2.30
2017-12-16T04:57:56.262Z,1.80
2017-12-16T04:58:56.245Z,2.00
2017-12-16T04:59:56.230Z,1.90
2017-12-16T05:00:56.204Z,2.00
2017-12-16T05:01:56.188Z,2.00
2017-12-16T05:02:56.167Z,2.20
2017-12-16T05:03:56.154Z,2.00
2017-12-16T05:04:56.112Z,2.30
2017-12-16T05:05:56.085Z,2.10
2017-12-16T05:06:56.607Z,2.10
2017-12-16T05:07:56.040Z,2.20
2017-12-16T05:08:56.029Z,2.20
2017-12-16T05:09:56.002Z,2.30
2017-12-16T05:10:55.968Z,2.20
2017-12-16T05:11:55.963Z,2.90
2017-12-16T05:12:55.920Z,2.50
2017-12-16T05:13:55.896Z,2.10
2017-12-16T05:14:55.875Z,2.10
2017-12-16T05:15:55.846Z,2.50
2017-12-16T05:16:55.843Z,1.90
2017-12-16T05:17:55.808Z,1.90
2017-12-16T05:18:55.804Z,2.20
2017-12-16T05:19:55.755Z,2.30
2017-12-16T05:20:55.744Z,2.20
2017-12-16T05:21:55.729Z,2.40
2017-12-16T05:22:55.701Z,2.40
2017-12-16T05:23:55.662Z,2.30
2017-12-16T05:24:55.654Z,2.50
2017-12-16T05:25:55.614Z,2.40
2017-12-16T05:26:55.609Z,2.00
2017-12-16T05:27:55.562Z,2.40
2017-12-16T05:28:55.559Z,2.20
2017-12-16T05:29:55.537Z,2.00
2017-12-16T05:30:55.508Z,1.90
2017-12-16T05:31:55.482Z,2.00
2017-12-16T05:32:55.447Z,2.20
2017-12-16T05:33:55.434Z,2.00
2017-12-16T05:34:55.385Z,2.30
2017-12-16T05:35:55.371Z,2.10
2017-12-16T05:36:55.354Z,2.10
2017-12-16T05:37:55.327Z,2.20
2017-12-16T05:38:55.305Z,2.20
2017-12-16T05:39:55.291Z,2.30
2017-12-16T05:40:55.276Z,2.30
2017-12-16T05:41:55.231Z,2.10
2017-12-16T05:42:55.224Z,2.00
2017-12-16T05:43:55.205Z,2.50
2017-12-16T05:44:55.159Z,2.30
2017-12-16T05:45:55.141Z,2.10
2017-12-16T05:46:55.128Z,1.90
2017-12-16T05:47:55.087Z,2.40
2017-12-16T05:48:55.087Z,2.50
2017-12-16T05:49:55.060Z,2.20
2017-12-16T05:50:55.035Z,2.40
2017-12-16T05:51:54.999Z,2.30
2017-12-16T05:52:54.963Z,2.60
2017-12-16T05:53:54.960Z,2.40
2017-12-16T05:54:54.924Z,2.00
2017-12-16T05:55:54.954Z,2.40
2017-12-16T05:56:54.863Z,2.10
2017-12-16T05:57:54.868Z,2.60
2017-12-16T05:58:54.818Z,2.30
2017-12-16T05:59:54.800Z,2.40
2017-12-16T06:00:54.782Z,2.70
2017-12-16T06:01:54.739Z,2.50
2017-12-16T06:02:54.749Z,2.30
2017-12-16T06:03:54.706Z,2.40
2017-12-16T06:04:54.700Z,2.40
2017-12-16T06:05:54.658Z,2.70
2017-12-16T06:06:54.651Z,2.60
2017-12-16T06:07:54.602Z,2.20
2017-12-16T06:08:54.584Z,2.40
2017-12-16T06:09:54.557Z,2.70
2017-12-16T06:10:54.551Z,2.50
2017-12-16T06:11:54.528Z,2.40
2017-12-16T06:12:54.478Z,2.30
2017-12-16T06:13:54.479Z,2.30
2017-12-16T06:14:54.441Z,2.60
2017-12-16T06:15:54.435Z,2.70
2017-12-16T06:16:54.392Z,2.40
2017-12-16T06:17:54.360Z,2.80
2017-12-16T06:18:54.340Z,3.00
2017-12-16T06:19:54.350Z,2.00
2017-12-16T06:20:54.286Z,2.70
2017-12-16T06:21:54.268Z,2.50
2017-12-16T06:22:54.246Z,2.70
2017-12-16T06:23:54.214Z,2.30
2017-12-16T06:24:55.137Z,2.90
2017-12-16T06:25:54.171Z,2.40
2017-12-16T06:26:54.146Z,2.40
2017-12-16T06:27:54.128Z,2.80
2017-12-16T06:28:54.103Z,2.40
2017-12-16T06:29:54.074Z,2.50
2017-12-16T06:30:54.043Z,2.70
2017-12-16T06:31:54.020Z,3.20
2017-12-16T06:32:54.005Z,2.40
2017-12-16T06:33:53.971Z,2.60
2017-12-16T06:34:53.952Z,3.00
2017-12-16T06:35:53.947Z,2.50
2017-12-16T06:36:53.902Z,2.10
2017-12-16T06:37:53.882Z,2.30
2017-12-16T06:38:53.858Z,2.20
2017-12-16T06:39:53.818Z,2.70
2017-12-16T06:40:53.806Z,2.30
2017-12-16T06:41:54.631Z,2.20
2017-12-16T06:42:53.756Z,2.50
2017-12-16T06:43:53.723Z,2.50
2017-12-16T06:44:53.714Z,2.50
2017-12-16T06:45:54.640Z,2.60
2017-12-16T06:46:53.658Z,2.50
2017-12-16T06:47:53.627Z,2.30
2017-12-16T06:48:53.617Z,2.20
2017-12-16T06:49:53.591Z,2.50
2017-12-16T06:50:53.563Z,2.40
2017-12-16T06:51:53.538Z,2.50
2017-12-16T06:52:53.518Z,2.40
2017-12-16T06:53:53.497Z,2.50
2017-12-16T06:54:53.471Z,2.20
2017-12-16T06:55:53.445Z,2.20
2017-12-16T06:56:53.419Z,2.30
2017-12-16T06:57:53.395Z,2.50
2017-12-16T06:58:53.371Z,2.40
2017-12-16T06:59:53.349Z,2.50
2017-12-16T07:00:53.322Z,2.60
2017-12-16T07:01:53.305Z,2.60
2017-12-16T07:02:53.286Z,2.10
2017-12-16T07:03:53.250Z,2.50
2017-12-16T07:04:53.221Z,2.50
2017-12-16T07:05:53.199Z,1.90
2017-12-16T07:06:53.175Z,2.40
2017-12-16T07:07:53.151Z,2.50
2017-12-16T07:08:53.134Z,2.60
2017-12-16T07:09:53.106Z,2.30
2017-12-16T07:10:53.079Z,2.20
2017-12-16T07:11:53.063Z,2.10
2017-12-16T07:12:53.017Z,2.50
2017-12-16T07:13:53.019Z,2.30
2017-12-16T07:14:52.988Z,2.40
2017-12-16T07:15:52.962Z,2.30
2017-12-16T07:16:52.932Z,2.30
2017-12-16T07:17:52.913Z,2.10
2017-12-16T07:18:52.882Z,2.60
2017-12-16T07:19:52.867Z,2.30
2017-12-16T07:20:52.838Z,2.10
2017-12-16T07:21:53.637Z,1.70
2017-12-16T07:22:52.861Z,1.90
2017-12-16T07:23:52.763Z,2.10
2017-12-16T07:24:53.642Z,2.20
2017-12-16T07:25:52.724Z,2.20
2017-12-16T07:26:52.695Z,2.20
2017-12-16T07:27:52.663Z,2.00
2017-12-16T07:28:52.649Z,2.30
2017-12-16T07:29:52.636Z,1.90
2017-12-16T07:30:52.593Z,2.10
2017-12-16T07:31:52.579Z,2.00
2017-12-16T07:32:52.553Z,2.10
2017-12-16T07:33:52.525Z,2.10
2017-12-16T07:34:52.502Z,2.30
2017-12-16T07:35:52.480Z,2.20
2017-12-16T07:36:52.458Z,2.00
2017-12-16T07:37:52.420Z,2.50
2017-12-16T07:38:52.394Z,2.40
2017-12-16T07:39:52.382Z,2.10
2017-12-16T07:40:52.391Z,2.10
2017-12-16T07:41:52.332Z,2.10
2017-12-16T07:42:52.310Z,2.10
2017-12-16T07:43:52.284Z,2.00
2017-12-16T07:44:52.257Z,1.90
2017-12-16T07:45:52.228Z,2.10
2017-12-16T07:46:52.209Z,2.20
2017-12-16T07:47:52.191Z,2.10
2017-12-16T07:48:52.155Z,1.90
2017-12-16T07:49:52.152Z,1.90
2017-12-16T07:50:52.116Z,2.10
2017-12-16T07:51:52.090Z,2.50
2017-12-16T07:52:52.067Z,1.80
2017-12-16T07:53:52.045Z,1.70
2017-12-16T07:54:52.024Z,2.40
2017-12-16T07:55:51.991Z,2.30
2017-12-16T07:56:51.963Z,1.70
2017-12-16T07:57:51.949Z,2.50
2017-12-16T07:58:51.919Z,1.90
2017-12-16T07:59:51.894Z,1.90
2017-12-16T08:00:51.876Z,1.70
2017-12-16T08:01:51.835Z,2.10
2017-12-16T08:02:51.834Z,2.00
2017-12-16T08:03:51.794Z,2.10
2017-12-16T08:04:51.778Z,2.10
2017-12-16T08:05:51.746Z,2.10
2017-12-16T08:06:51.729Z,2.10
2017-12-16T08:07:51.705Z,2.00
2017-12-16T08:08:51.673Z,1.80
2017-12-16T08:09:51.643Z,2.10
2017-12-16T08:10:51.619Z,2.20
2017-12-16T08:11:51.608Z,2.30
2017-12-16T08:12:51.583Z,2.00
2017-12-16T08:13:51.557Z,2.10
2017-12-16T08:14:51.532Z,2.00
2017-12-16T08:15:51.516Z,2.30
2017-12-16T08:16:51.485Z,1.90
2017-12-16T08:17:51.453Z,2.30
2017-12-16T08:18:51.430Z,2.10
2017-12-16T08:19:51.404Z,1.80
2017-12-16T08:20:51.375Z,2.20
2017-12-16T08:21:51.363Z,2.30
2017-12-16T08:22:51.337Z,2.20
2017-12-16T08:23:51.304Z,2.50
2017-12-16T08:24:51.289Z,2.10
2017-12-16T08:25:51.268Z,2.70
2017-12-16T08:26:51.235Z,2.40
2017-12-16T08:27:51.208Z,2.20
2017-12-16T08:28:51.189Z,2.50
2017-12-16T08:29:51.154Z,2.30
2017-12-16T08:30:51.141Z,2.50
2017-12-16T08:31:51.126Z,2.60
2017-12-16T08:32:51.080Z,2.30
2017-12-16T08:33:51.063Z,2.20
2017-12-16T08:34:51.040Z,2.80
2017-12-16T08:35:51.012Z,2.40
2017-12-16T08:36:50.982Z,2.30
2017-12-16T08:37:50.968Z,2.60
2017-12-16T08:38:50.942Z,2.40
2017-12-16T08:39:50.919Z,2.70
2017-12-16T08:40:50.950Z,2.80
2017-12-16T08:41:50.854Z,2.60
2017-12-16T08:42:50.845Z,3.10
2017-12-16T08:43:50.861Z,2.60
2017-12-16T08:44:50.803Z,2.50
2017-12-16T08:45:50.763Z,2.60
2017-12-16T08:46:50.742Z,2.40
2017-12-16T08:47:50.722Z,2.80
2017-12-16T08:48:50.688Z,3.10
2017-12-16T08:49:50.675Z,2.50
2017-12-16T08:50:50.649Z,3.20
2017-12-16T08:51:50.611Z,2.70
2017-12-16T08:52:50.593Z,3.30
2017-12-16T08:53:50.561Z,4.00
2017-12-16T08:54:50.546Z,3.20
2017-12-16T08:55:50.520Z,2.80
2017-12-16T08:56:50.501Z,2.60
2017-12-16T08:57:50.466Z,3.40
2017-12-16T08:58:50.443Z,3.20
2017-12-16T08:59:50.422Z,2.90
2017-12-16T09:00:50.402Z,2.80
2017-12-16T09:01:50.383Z,2.70
2017-12-16T09:02:50.364Z,2.80
2017-12-16T09:03:50.319Z,3.10
2017-12-16T09:04:50.297Z,3.20
2017-12-16T09:05:50.276Z,3.30
2017-12-16T09:06:50.245Z,2.80
2017-12-16T09:07:50.220Z,3.20
2017-12-16T09:08:50.202Z,3.20
2017-12-16T09:09:50.171Z,3.00
2017-12-16T09:10:50.148Z,3.20
2017-12-16T09:11:50.128Z,3.10
2017-12-16T09:12:50.105Z,3.30
2017-12-16T09:13:50.078Z,3.10
2017-12-16T09:14:50.045Z,2.80
2017-12-16T09:15:50.022Z,3.20
2017-12-16T09:16:49.999Z,3.00
2017-12-16T09:17:49.987Z,3.40
2017-12-16T09:18:49.953Z,2.80
2017-12-16T09:19:49.922Z,3.00
2017-12-16T09:20:49.907Z,2.80
2017-12-16T09:21:49.880Z,3.20
2017-12-16T09:22:49.850Z,3.00
2017-12-16T09:23:49.821Z,3.00
2017-12-16T09:24:49.807Z,3.10
2017-12-16T09:25:49.788Z,3.40
2017-12-16T09:26:49.764Z,3.10
2017-12-16T09:27:49.732Z,3.40
2017-12-16T09:28:49.710Z,3.40
2017-12-16T09:29:49.686Z,3.00
2017-12-16T09:30:49.664Z,3.20
2017-12-16T09:31:49.626Z,3.30
2017-12-16T09:32:49.615Z,3.50
2017-12-16T09:33:49.593Z,3.10
2017-12-16T09:34:49.560Z,2.80
2017-12-16T09:35:49.543Z,3.40
2017-12-16T09:36:49.512Z,3.00
2017-12-16T09:37:49.480Z,3.20
2017-12-16T09:38:49.471Z,3.70
2017-12-16T09:39:49.446Z,3.50
2017-12-16T09:40:49.421Z,3.40
2017-12-16T09:41:49.400Z,3.20
2017-12-16T09:42:49.367Z,3.10
2017-12-16T09:43:49.346Z,2.70
2017-12-16T09:44:49.315Z,3.10
2017-12-16T09:45:49.298Z,3.50
2017-12-16T09:46:49.272Z,3.30
2017-12-16T09:47:50.173Z,3.00
2017-12-16T09:48:49.219Z,3.30
2017-12-16T09:49:49.193Z,3.40
2017-12-16T09:50:49.173Z,3.20
2017-12-16T09:51:49.159Z,2.90
2017-12-16T09:52:49.128Z,3.20
2017-12-16T09:53:49.105Z,3.40
2017-12-16T09:54:49.071Z,3.60
2017-12-16T09:55:49.055Z,3.60
2017-12-16T09:56:49.032Z,3.50
2017-12-16T09:57:49.002Z,3.30
2017-12-16T09:58:48.977Z,3.50
2017-12-16T09:59:48.958Z,3.40
2017-12-16T10:00:48.933Z,3.40
2017-12-16T10:01:48.905Z,3.10
2017-12-16T10:02:48.888Z,3.50
2017-12-16T10:03:48.858Z,3.60
2017-12-16T10:04:48.829Z,3.50
2017-12-16T10:05:48.811Z,3.70
2017-12-16T10:06:48.786Z,2.90
2017-12-16T10:07:48.764Z,3.20
2017-12-16T10:08:48.735Z,3.40
2017-12-16T10:09:48.714Z,3.70
2017-12-16T10:10:48.688Z,3.30
2017-12-16T10:11:48.662Z,3.20
2017-12-16T10:12:48.642Z,3.60
2017-12-16T10:13:48.603Z,3.20
2017-12-16T10:14:48.598Z,3.60
2017-12-16T10:15:48.564Z,3.70
2017-12-16T10:16:48.552Z,3.50
2017-12-16T10:17:48.524Z,3.30
2017-12-16T10:18:48.504Z,3.50
2017-12-16T10:19:48.469Z,3.10
2017-12-16T10:20:48.433Z,3.70
2017-12-16T10:21:48.422Z,2.90
2017-12-16T10:22:48.398Z,3.20
2017-12-16T10:23:48.367Z,3.50
2017-12-16T10:24:48.349Z,3.00
2017-12-16T10:25:48.333Z,3.40
2017-12-16T10:26:48.299Z,3.60
2017-12-16T10:27:48.256Z,3.80
2017-12-16T10:28:48.249Z,3.50
2017-12-16T10:29:48.221Z,3.20
2017-12-16T10:30:48.191Z,3.60
2017-12-16T10:31:48.179Z,3.50
2017-12-16T10:32:48.160Z,3.90
2017-12-16T10:33:48.125Z,3.50
2017-12-16T10:34:48.090Z,3.50
2017-12-16T10:35:48.071Z,3.60
2017-12-16T10:36:48.055Z,3.40
2017-12-16T10:37:48.030Z,3.50
2017-12-16T10:38:48.003Z,3.30
2017-12-16T10:39:48.695Z,3.70
2017-12-16T10:40:47.950Z,3.50
2017-12-16T10:41:47.936Z,3.60
2017-12-16T10:42:47.905Z,3.70
2017-12-16T10:43:47.883Z,3.90
2017-12-16T10:44:47.861Z,2.90
2017-12-16T10:45:47.834Z,3.40
2017-12-16T10:46:47.807Z,3.70
2017-12-16T10:47:48.686Z,3.40
2017-12-16T10:48:47.764Z,3.80
2017-12-16T10:49:47.720Z,3.40
2017-12-16T10:50:47.709Z,3.10
2017-12-16T10:51:47.679Z,3.40
2017-12-16T10:52:47.641Z,3.00
2017-12-16T10:53:47.622Z,3.30
2017-12-16T10:54:47.611Z,2.60
2017-12-16T10:55:47.586Z,3.10
2017-12-16T10:56:47.559Z,3.40
2017-12-16T10:57:47.540Z,2.80
2017-12-16T10:58:47.516Z,3.00
2017-12-16T10:59:47.497Z,3.40
2017-12-16T11:00:47.468Z,3.20
2017-12-16T11:01:47.442Z,3.10
2017-12-16T11:02:47.419Z,3.30
2017-12-16T11:03:47.379Z,3.60
2017-12-16T11:04:47.374Z,3.00
2017-12-16T11:05:47.339Z,2.80
2017-12-16T11:06:47.315Z,3.10
2017-12-16T11:07:47.297Z,3.40
2017-12-16T11:08:47.269Z,3.00
2017-12-16T11:09:47.237Z,2.90
2017-12-16T11:10:47.218Z,3.00
2017-12-16T11:11:47.197Z,3.10
2017-12-16T11:12:47.166Z,3.80
2017-12-16T11:13:47.152Z,3.70
2017-12-16T11:14:47.119Z,2.90
2017-12-16T11:15:47.087Z,3.10
2017-12-16T11:16:47.076Z,3.00
2017-12-16T11:17:47.047Z,3.10
2017-12-16T11:18:47.029Z,3.30
2017-12-16T11:19:47.003Z,2.90
2017-12-16T11:20:46.976Z,3.20
2017-12-16T11:21:46.959Z,3.40
2017-12-16T11:22:46.930Z,3.20
2017-12-16T11:23:46.896Z,3.10
2017-12-16T11:24:46.882Z,3.00
2017-12-16T11:25:46.857Z,2.90
2017-12-16T11:26:46.837Z,3.40
2017-12-16T11:27:46.803Z,3.20
2017-12-16T11:28:46.777Z,3.20
2017-12-16T11:29:46.763Z,3.10
2017-12-16T11:30:46.733Z,3.10
2017-12-16T11:31:46.709Z,3.30
2017-12-16T11:32:46.683Z,3.00
2017-12-16T11:33:46.666Z,2.80
2017-12-16T11:34:46.635Z,3.10
2017-12-16T11:35:46.613Z,3.30
2017-12-16T11:36:46.590Z,3.20
2017-12-16T11:37:46.566Z,3.50
2017-12-16T11:38:46.534Z,2.90
2017-12-16T11:39:46.518Z,3.00
2017-12-16T11:40:46.498Z,2.40
2017-12-16T11:41:46.473Z,2.80
2017-12-16T11:42:46.443Z,3.20
2017-12-16T11:43:46.418Z,3.60
2017-12-16T11:44:46.401Z,3.10
2017-12-16T11:45:46.356Z,3.30
2017-12-16T11:46:46.345Z,3.40
2017-12-16T11:47:46.326Z,3.40
2017-12-16T11:48:46.301Z,3.00
2017-12-16T11:49:46.280Z,3.50
2017-12-16T11:50:46.254Z,3.00
2017-12-16T11:51:46.229Z,2.90
2017-12-16T11:52:46.205Z,2.70
2017-12-16T11:53:46.180Z,3.20
2017-12-16T11:54:46.159Z,3.10
2017-12-16T11:55:46.136Z,3.00
2017-12-16T11:56:46.108Z,2.90
2017-12-16T11:57:46.084Z,3.10
2017-12-16T11:58:46.057Z,3.50
2017-12-16T11:59:46.707Z,3.50
2017-12-16T12:00:46.020Z,3.00
2017-12-16T12:01:45.998Z,2.90
2017-12-16T12:02:45.956Z,3.70
2017-12-16T12:03:45.941Z,3.10
2017-12-16T12:04:45.920Z,3.30
2017-12-16T12:05:45.903Z,3.10
2017-12-16T12:06:45.873Z,3.70
2017-12-16T12:07:45.875Z,3.60
2017-12-16T12:08:45.843Z,3.30
2017-12-16T12:09:45.811Z,3.00
2017-12-16T12:10:45.803Z,3.30
2017-12-16T12:11:45.761Z,2.80
2017-12-16T12:12:45.737Z,3.60
2017-12-16T12:13:45.738Z,3.30
2017-12-16T12:14:45.690Z,3.20
2017-12-16T12:15:45.670Z,3.30
2017-12-16T12:16:45.644Z,2.80
2017-12-16T12:17:45.637Z,3.10
2017-12-16T12:18:45.619Z,3.50
2017-12-16T12:19:45.573Z,3.00
2017-12-16T12:20:45.555Z,3.30
2017-12-16T12:21:45.549Z,3.20
2017-12-16T12:22:45.497Z,3.10
2017-12-16T12:23:45.499Z,3.00
2017-12-16T12:24:45.462Z,3.50
2017-12-16T12:25:45.447Z,3.20
2017-12-16T12:26:45.424Z,3.10
2017-12-16T12:27:45.402Z,3.50
2017-12-16T12:28:45.375Z,3.40
2017-12-16T12:29:45.350Z,3.00
2017-12-16T12:30:45.314Z,3.20
2017-12-16T12:31:45.297Z,3.10
2017-12-16T12:32:45.294Z,3.00
2017-12-16T12:33:45.247Z,3.00
2017-12-16T12:34:45.245Z,3.10
2017-12-16T12:35:45.198Z,2.90
2017-12-16T12:36:45.185Z,3.00
2017-12-16T12:37:45.171Z,2.90
2017-12-16T12:38:45.136Z,2.70
2017-12-16T12:39:45.118Z,2.70
2017-12-16T12:40:45.102Z,3.20
2017-12-16T12:41:45.086Z,2.70
2017-12-16T12:42:45.056Z,2.80
2017-12-16T12:43:45.042Z,2.70
2017-12-16T12:44:45.026Z,2.20
2017-12-16T12:45:44.976Z,2.70
2017-12-16T12:46:44.952Z,2.90
2017-12-16T12:47:44.934Z,2.60
2017-12-16T12:48:44.917Z,2.50
2017-12-16T12:49:44.879Z,2.60
2017-12-16T12:50:44.869Z,2.80
2017-12-16T12:51:44.826Z,2.70
2017-12-16T12:52:44.812Z,2.70
2017-12-16T12:53:44.785Z,2.40
2017-12-16T12:54:44.784Z,3.00
2017-12-16T12:55:44.749Z,3.20
2017-12-16T12:56:44.719Z,3.20
2017-12-16T12:57:44.718Z,2.30
2017-12-16T12:58:44.672Z,2.70
2017-12-16T12:59:44.657Z,2.70
2017-12-16T13:00:44.633Z,2.50
2017-12-16T13:01:44.620Z,2.50
2017-12-16T13:02:44.571Z,2.70
2017-12-16T13:03:44.576Z,2.20
2017-12-16T13:04:44.532Z,2.60
2017-12-16T13:05:44.525Z,2.30
2017-12-16T13:06:44.494Z,2.60
2017-12-16T13:07:44.463Z,2.80
2017-12-16T13:08:44.449Z,2.60
2017-12-16T13:09:44.429Z,2.50
2017-12-16T13:10:44.632Z,2.70
2017-12-16T13:11:44.370Z,2.30
2017-12-16T13:12:44.373Z,2.60
2017-12-16T13:13:44.330Z,2.70
2017-12-16T13:14:44.312Z,2.80
2017-12-16T13:15:44.285Z,2.60
2017-12-16T13:16:44.270Z,2.50
2017-12-16T13:17:44.245Z,2.60